sensor_id;sensor_type;location;lat;lon;timestamp;temperature;humidity
25550;DHT22;13444;50.562;7.262;2022-09-09T00:04:03;16.90;99.90
25550;DHT22;13444;50.562;7.262;2022-09-09T00:06:33;16.90;99.90
25550;DHT22;13444;50.562;7.262;2022-09-09T00:09:11;16.90;99.90
25550;DHT22;13444;50.562;7.262;2022-09-09T00:11:47;16.80;99.90
25550;DHT22;13444;50.562;7.262;2022-09-09T00:17:43;16.90;99.90
25550;DHT22;13444;50.562;7.262;2022-09-09T00:23:00;16.80;99.90
25550;DHT22;13444;50.562;7.262;2022-09-09T00:25:37;16.80;99.90
25550;DHT22;13444;50.562;7.262;2022-09-09T00:28:16;16.80;99.90
25550;DHT22;13444;50.562;7.262;2022-09-09T00:30:43;16.80;99.90
25550;DHT22;13444;50.562;7.262;2022-09-09T00:33:11;16.80;99.90
25550;DHT22;13444;50.562;7.262;2022-09-09T00:35:49;16.70;99.90
25550;DHT22;13444;50.562;7.262;2022-09-09T00:41:03;16.70;99.90
25550;DHT22;13444;50.562;7.262;2022-09-09T00:43:32;16.60;99.90
25550;DHT22;13444;50.562;7.262;2022-09-09T00:46:33;16.60;99.90
25550;DHT22;13444;50.562;7.262;2022-09-09T00:49:40;16.60;99.90
25550;DHT22;13444;50.562;7.262;2022-09-09T00:52:21;16.60;99.90
25550;DHT22;13444;50.562;7.262;2022-09-09T00:55:14;16.60;99.90
25550;DHT22;13444;50.562;7.262;2022-09-09T00:57:41;16.60;99.90
25550;DHT22;13444;50.562;7.262;2022-09-09T01:10:50;16.60;99.90
25550;DHT22;13444;50.562;7.262;2022-09-09T01:13:33;16.60;99.90
25550;DHT22;13444;50.562;7.262;2022-09-09T01:16:02;16.60;99.90
25550;DHT22;13444;50.562;7.262;2022-09-09T01:18:40;16.60;99.90
25550;DHT22;13444;50.562;7.262;2022-09-09T01:21:41;16.60;99.90
25550;DHT22;13444;50.562;7.262;2022-09-09T01:24:19;16.60;99.90
25550;DHT22;13444;50.562;7.262;2022-09-09T01:26:46;16.70;99.90
25550;DHT22;13444;50.562;7.262;2022-09-09T01:29:15;16.70;99.90
25550;DHT22;13444;50.562;7.262;2022-09-09T01:31:53;16.60;99.90
25550;DHT22;13444;50.562;7.262;2022-09-09T01:34:20;16.60;99.90
25550;DHT22;13444;50.562;7.262;2022-09-09T01:37:08;16.60;99.90
25550;DHT22;13444;50.562;7.262;2022-09-09T01:39:35;16.60;99.90
25550;DHT22;13444;50.562;7.262;2022-09-09T01:42:02;16.60;99.90
25550;DHT22;13444;50.562;7.262;2022-09-09T01:44:29;16.60;99.90
25550;DHT22;13444;50.562;7.262;2022-09-09T01:46:56;16.60;99.90
25550;DHT22;13444;50.562;7.262;2022-09-09T01:49:21;16.60;99.90
25550;DHT22;13444;50.562;7.262;2022-09-09T01:51:50;16.60;99.90
25550;DHT22;13444;50.562;7.262;2022-09-09T01:54:19;16.60;99.90
25550;DHT22;13444;50.562;7.262;2022-09-09T01:59:29;16.70;99.90
25550;DHT22;13444;50.562;7.262;2022-09-09T02:04:47;16.70;99.90
25550;DHT22;13444;50.562;7.262;2022-09-09T02:10:15;16.60;99.90
25550;DHT22;13444;50.562;7.262;2022-09-09T02:12:45;16.60;99.90
25550;DHT22;13444;50.562;7.262;2022-09-09T02:15:21;16.60;99.90
25550;DHT22;13444;50.562;7.262;2022-09-09T02:17:50;16.60;99.90
25550;DHT22;13444;50.562;7.262;2022-09-09T02:20:18;16.60;99.90
25550;DHT22;13444;50.562;7.262;2022-09-09T02:22:46;16.60;99.90
25550;DHT22;13444;50.562;7.262;2022-09-09T02:25:17;16.60;99.90
25550;DHT22;13444;50.562;7.262;2022-09-09T02:27:45;16.60;99.90
25550;DHT22;13444;50.562;7.262;2022-09-09T02:30:13;16.60;99.90
25550;DHT22;13444;50.562;7.262;2022-09-09T02:32:39;16.60;99.90
25550;DHT22;13444;50.562;7.262;2022-09-09T02:35:09;16.60;99.90
25550;DHT22;13444;50.562;7.262;2022-09-09T02:37:38;16.60;99.90
25550;DHT22;13444;50.562;7.262;2022-09-09T02:40:10;16.60;99.90
25550;DHT22;13444;50.562;7.262;2022-09-09T02:42:45;16.60;99.90
25550;DHT22;13444;50.562;7.262;2022-09-09T02:45:15;16.60;99.90
25550;DHT22;13444;50.562;7.262;2022-09-09T02:47:44;16.60;99.90
25550;DHT22;13444;50.562;7.262;2022-09-09T02:50:28;16.60;99.90
25550;DHT22;13444;50.562;7.262;2022-09-09T02:55:47;16.60;99.90
25550;DHT22;13444;50.562;7.262;2022-09-09T02:58:17;16.60;99.90
25550;DHT22;13444;50.562;7.262;2022-09-09T03:00:47;16.60;99.90
25550;DHT22;13444;50.562;7.262;2022-09-09T03:03:13;16.60;99.90
25550;DHT22;13444;50.562;7.262;2022-09-09T03:05:39;16.60;99.90
25550;DHT22;13444;50.562;7.262;2022-09-09T03:08:05;16.60;99.90
25550;DHT22;13444;50.562;7.262;2022-09-09T03:10:33;16.60;99.90
25550;DHT22;13444;50.562;7.262;2022-09-09T03:12:59;16.50;99.90
25550;DHT22;13444;50.562;7.262;2022-09-09T03:15:24;16.50;99.90
25550;DHT22;13444;50.562;7.262;2022-09-09T03:17:55;16.50;99.90
25550;DHT22;13444;50.562;7.262;2022-09-09T03:20:26;16.50;99.90
25550;DHT22;13444;50.562;7.262;2022-09-09T03:22:53;16.50;99.90
25550;DHT22;13444;50.562;7.262;2022-09-09T03:25:19;16.50;99.90
25550;DHT22;13444;50.562;7.262;2022-09-09T03:27:45;16.50;99.90
25550;DHT22;13444;50.562;7.262;2022-09-09T03:30:11;16.50;99.90
25550;DHT22;13444;50.562;7.262;2022-09-09T03:32:36;16.50;99.90
25550;DHT22;13444;50.562;7.262;2022-09-09T03:35:02;16.50;99.90
25550;DHT22;13444;50.562;7.262;2022-09-09T03:37:28;16.50;99.90
25550;DHT22;13444;50.562;7.262;2022-09-09T03:39:53;16.40;99.90
25550;DHT22;13444;50.562;7.262;2022-09-09T03:42:22;16.40;99.90
25550;DHT22;13444;50.562;7.262;2022-09-09T03:44:48;16.40;99.90
25550;DHT22;13444;50.562;7.262;2022-09-09T03:47:18;16.40;99.90
25550;DHT22;13444;50.562;7.262;2022-09-09T03:49:45;16.40;99.90
25550;DHT22;13444;50.562;7.262;2022-09-09T03:52:11;16.40;99.90
25550;DHT22;13444;50.562;7.262;2022-09-09T03:54:36;16.40;99.90
25550;DHT22;13444;50.562;7.262;2022-09-09T03:57:03;16.40;99.90
25550;DHT22;13444;50.562;7.262;2022-09-09T03:59:28;16.40;99.90
25550;DHT22;13444;50.562;7.262;2022-09-09T04:01:54;16.30;99.90
25550;DHT22;13444;50.562;7.262;2022-09-09T04:04:20;16.30;99.90
25550;DHT22;13444;50.562;7.262;2022-09-09T04:06:46;16.30;99.90
25550;DHT22;13444;50.562;7.262;2022-09-09T04:09:14;16.30;99.90
25550;DHT22;13444;50.562;7.262;2022-09-09T04:11:39;16.30;99.90
25550;DHT22;13444;50.562;7.262;2022-09-09T04:14:05;16.30;99.90
25550;DHT22;13444;50.562;7.262;2022-09-09T04:16:34;16.30;99.90
25550;DHT22;13444;50.562;7.262;2022-09-09T04:19:03;16.20;99.90
25550;DHT22;13444;50.562;7.262;2022-09-09T04:21:30;16.20;99.90
25550;DHT22;13444;50.562;7.262;2022-09-09T04:23:55;16.20;99.90
25550;DHT22;13444;50.562;7.262;2022-09-09T04:26:22;16.20;99.90
25550;DHT22;13444;50.562;7.262;2022-09-09T04:28:47;16.20;99.90
25550;DHT22;13444;50.562;7.262;2022-09-09T04:31:19;16.30;99.90
25550;DHT22;13444;50.562;7.262;2022-09-09T04:33:46;16.30;99.90
25550;DHT22;13444;50.562;7.262;2022-09-09T04:36:12;16.30;99.90
25550;DHT22;13444;50.562;7.262;2022-09-09T04:38:38;16.30;99.90
25550;DHT22;13444;50.562;7.262;2022-09-09T04:41:04;16.30;99.90
25550;DHT22;13444;50.562;7.262;2022-09-09T04:43:30;16.40;99.90
25550;DHT22;13444;50.562;7.262;2022-09-09T04:45:56;16.30;99.90
25550;DHT22;13444;50.562;7.262;2022-09-09T04:48:22;16.30;99.90
25550;DHT22;13444;50.562;7.262;2022-09-09T04:51:14;16.30;99.90
25550;DHT22;13444;50.562;7.262;2022-09-09T04:53:39;16.30;99.90
25550;DHT22;13444;50.562;7.262;2022-09-09T04:56:09;16.30;99.90
25550;DHT22;13444;50.562;7.262;2022-09-09T04:58:36;16.30;99.90
25550;DHT22;13444;50.562;7.262;2022-09-09T05:01:13;16.30;99.90
25550;DHT22;13444;50.562;7.262;2022-09-09T05:03:39;16.30;99.90
25550;DHT22;13444;50.562;7.262;2022-09-09T05:06:10;16.30;99.90
25550;DHT22;13444;50.562;7.262;2022-09-09T05:08:41;16.30;99.90
25550;DHT22;13444;50.562;7.262;2022-09-09T05:11:20;16.30;99.90
25550;DHT22;13444;50.562;7.262;2022-09-09T05:13:48;16.40;99.90
25550;DHT22;13444;50.562;7.262;2022-09-09T05:16:15;16.30;99.90
25550;DHT22;13444;50.562;7.262;2022-09-09T05:18:41;16.30;99.90
25550;DHT22;13444;50.562;7.262;2022-09-09T05:21:08;16.40;99.90
25550;DHT22;13444;50.562;7.262;2022-09-09T05:23:34;16.40;99.90
25550;DHT22;13444;50.562;7.262;2022-09-09T05:26:01;16.50;99.90
25550;DHT22;13444;50.562;7.262;2022-09-09T05:28:27;16.60;99.90
25550;DHT22;13444;50.562;7.262;2022-09-09T05:31:01;16.70;99.90
25550;DHT22;13444;50.562;7.262;2022-09-09T05:33:29;16.80;99.90
25550;DHT22;13444;50.562;7.262;2022-09-09T05:35:59;16.80;99.90
25550;DHT22;13444;50.562;7.262;2022-09-09T05:38:26;16.80;99.90
25550;DHT22;13444;50.562;7.262;2022-09-09T05:40:53;16.80;99.90
25550;DHT22;13444;50.562;7.262;2022-09-09T05:43:21;16.80;99.90
25550;DHT22;13444;50.562;7.262;2022-09-09T05:45:48;16.70;99.90
25550;DHT22;13444;50.562;7.262;2022-09-09T05:48:17;16.70;99.90
25550;DHT22;13444;50.562;7.262;2022-09-09T05:50:43;16.70;99.90
25550;DHT22;13444;50.562;7.262;2022-09-09T05:53:10;16.70;99.90
25550;DHT22;13444;50.562;7.262;2022-09-09T05:55:36;16.70;99.90
25550;DHT22;13444;50.562;7.262;2022-09-09T05:58:01;16.70;99.90
25550;DHT22;13444;50.562;7.262;2022-09-09T06:00:28;16.70;99.90
25550;DHT22;13444;50.562;7.262;2022-09-09T06:02:54;16.70;99.90
25550;DHT22;13444;50.562;7.262;2022-09-09T06:05:19;16.70;99.90
25550;DHT22;13444;50.562;7.262;2022-09-09T06:07:45;16.70;99.90
25550;DHT22;13444;50.562;7.262;2022-09-09T06:10:11;16.80;99.90
25550;DHT22;13444;50.562;7.262;2022-09-09T06:12:40;16.80;99.90
25550;DHT22;13444;50.562;7.262;2022-09-09T06:15:05;16.80;99.90
25550;DHT22;13444;50.562;7.262;2022-09-09T06:17:32;16.80;99.90
25550;DHT22;13444;50.562;7.262;2022-09-09T06:19:57;16.90;99.90
25550;DHT22;13444;50.562;7.262;2022-09-09T06:22:23;16.90;99.90
25550;DHT22;13444;50.562;7.262;2022-09-09T06:24:49;17.00;99.90
25550;DHT22;13444;50.562;7.262;2022-09-09T06:27:14;17.10;99.90
25550;DHT22;13444;50.562;7.262;2022-09-09T06:29:40;17.20;99.90
25550;DHT22;13444;50.562;7.262;2022-09-09T06:32:05;17.20;99.90
25550;DHT22;13444;50.562;7.262;2022-09-09T06:34:33;17.40;99.90
25550;DHT22;13444;50.562;7.262;2022-09-09T06:37:00;17.60;99.90
25550;DHT22;13444;50.562;7.262;2022-09-09T06:39:26;17.60;99.90
25550;DHT22;13444;50.562;7.262;2022-09-09T06:41:51;17.70;99.90
25550;DHT22;13444;50.562;7.262;2022-09-09T06:44:18;17.90;99.90
25550;DHT22;13444;50.562;7.262;2022-09-09T06:46:44;18.00;99.90
25550;DHT22;13444;50.562;7.262;2022-09-09T06:49:12;18.10;99.90
25550;DHT22;13444;50.562;7.262;2022-09-09T06:51:38;18.20;99.90
25550;DHT22;13444;50.562;7.262;2022-09-09T06:54:08;18.20;99.90
25550;DHT22;13444;50.562;7.262;2022-09-09T06:56:36;18.40;99.90
25550;DHT22;13444;50.562;7.262;2022-09-09T06:59:04;18.40;99.90
25550;DHT22;13444;50.562;7.262;2022-09-09T07:01:35;18.50;99.90
25550;DHT22;13444;50.562;7.262;2022-09-09T07:04:02;18.60;99.90
25550;DHT22;13444;50.562;7.262;2022-09-09T07:06:31;18.60;99.90
25550;DHT22;13444;50.562;7.262;2022-09-09T07:09:13;18.70;99.90
25550;DHT22;13444;50.562;7.262;2022-09-09T07:11:44;18.80;99.90
25550;DHT22;13444;50.562;7.262;2022-09-09T07:14:11;18.90;99.90
25550;DHT22;13444;50.562;7.262;2022-09-09T07:16:43;19.10;99.90
25550;DHT22;13444;50.562;7.262;2022-09-09T07:19:10;19.10;99.90
25550;DHT22;13444;50.562;7.262;2022-09-09T07:21:35;19.20;99.90
25550;DHT22;13444;50.562;7.262;2022-09-09T07:24:01;19.20;99.90
25550;DHT22;13444;50.562;7.262;2022-09-09T07:26:29;19.30;99.90
25550;DHT22;13444;50.562;7.262;2022-09-09T07:28:56;19.40;99.90
25550;DHT22;13444;50.562;7.262;2022-09-09T07:31:35;19.60;99.90
25550;DHT22;13444;50.562;7.262;2022-09-09T07:34:02;19.50;99.90
25550;DHT22;13444;50.562;7.262;2022-09-09T07:36:33;19.50;99.90
25550;DHT22;13444;50.562;7.262;2022-09-09T07:39:10;19.30;99.90
25550;DHT22;13444;50.562;7.262;2022-09-09T07:41:40;19.50;99.90
25550;DHT22;13444;50.562;7.262;2022-09-09T07:44:08;19.50;99.90
25550;DHT22;13444;50.562;7.262;2022-09-09T07:46:34;19.60;99.90
25550;DHT22;13444;50.562;7.262;2022-09-09T07:49:00;19.90;99.90
25550;DHT22;13444;50.562;7.262;2022-09-09T07:51:28;20.20;99.90
25550;DHT22;13444;50.562;7.262;2022-09-09T07:53:57;20.40;99.90
25550;DHT22;13444;50.562;7.262;2022-09-09T07:56:24;20.50;99.90
25550;DHT22;13444;50.562;7.262;2022-09-09T07:58:52;20.70;99.90
25550;DHT22;13444;50.562;7.262;2022-09-09T08:01:21;20.80;99.90
25550;DHT22;13444;50.562;7.262;2022-09-09T08:03:52;20.90;99.90
25550;DHT22;13444;50.562;7.262;2022-09-09T08:06:18;21.00;99.90
25550;DHT22;13444;50.562;7.262;2022-09-09T08:08:43;21.10;99.90
25550;DHT22;13444;50.562;7.262;2022-09-09T08:11:13;21.50;99.90
25550;DHT22;13444;50.562;7.262;2022-09-09T08:13:41;21.30;99.90
25550;DHT22;13444;50.562;7.262;2022-09-09T08:16:13;21.00;99.90
25550;DHT22;13444;50.562;7.262;2022-09-09T08:18:40;20.60;99.90
25550;DHT22;13444;50.562;7.262;2022-09-09T08:21:10;20.60;99.90
25550;DHT22;13444;50.562;7.262;2022-09-09T08:23:41;20.90;99.90
25550;DHT22;13444;50.562;7.262;2022-09-09T08:26:12;20.80;99.90
25550;DHT22;13444;50.562;7.262;2022-09-09T08:28:39;20.70;99.90
25550;DHT22;13444;50.562;7.262;2022-09-09T08:31:16;20.70;99.90
25550;DHT22;13444;50.562;7.262;2022-09-09T08:33:43;20.60;99.90
25550;DHT22;13444;50.562;7.262;2022-09-09T08:36:12;21.10;99.90
25550;DHT22;13444;50.562;7.262;2022-09-09T08:38:38;21.70;99.90
25550;DHT22;13444;50.562;7.262;2022-09-09T08:44:29;22.40;99.90
25550;DHT22;13444;50.562;7.262;2022-09-09T08:51:56;21.70;99.90
25550;DHT22;13444;50.562;7.262;2022-09-09T08:54:23;21.30;99.90
25550;DHT22;13444;50.562;7.262;2022-09-09T08:56:49;21.20;99.90
25550;DHT22;13444;50.562;7.262;2022-09-09T08:59:17;21.20;99.90
25550;DHT22;13444;50.562;7.262;2022-09-09T09:04:38;21.50;99.90
25550;DHT22;13444;50.562;7.262;2022-09-09T09:07:18;21.40;99.90
25550;DHT22;13444;50.562;7.262;2022-09-09T09:12:51;21.70;99.90
25550;DHT22;13444;50.562;7.262;2022-09-09T09:15:26;21.80;99.90
25550;DHT22;13444;50.562;7.262;2022-09-09T09:17:53;21.90;99.90
25550;DHT22;13444;50.562;7.262;2022-09-09T09:20:24;21.80;99.90
25550;DHT22;13444;50.562;7.262;2022-09-09T09:22:54;22.00;99.90
25550;DHT22;13444;50.562;7.262;2022-09-09T09:25:41;21.70;99.90
25550;DHT22;13444;50.562;7.262;2022-09-09T09:28:21;21.60;99.90
25550;DHT22;13444;50.562;7.262;2022-09-09T09:31:06;22.00;99.90
25550;DHT22;13444;50.562;7.262;2022-09-09T09:33:45;22.20;99.90
25550;DHT22;13444;50.562;7.262;2022-09-09T09:36:12;22.00;99.90
25550;DHT22;13444;50.562;7.262;2022-09-09T09:38:52;21.60;99.90
25550;DHT22;13444;50.562;7.262;2022-09-09T09:41:29;21.20;99.90
25550;DHT22;13444;50.562;7.262;2022-09-09T09:43:55;20.90;99.90
25550;DHT22;13444;50.562;7.262;2022-09-09T09:46:23;20.70;99.90
25550;DHT22;13444;50.562;7.262;2022-09-09T09:48:59;20.70;99.90
25550;DHT22;13444;50.562;7.262;2022-09-09T09:51:26;20.60;99.90
25550;DHT22;13444;50.562;7.262;2022-09-09T09:53:53;20.60;99.90
25550;DHT22;13444;50.562;7.262;2022-09-09T09:56:27;20.70;99.90
25550;DHT22;13444;50.562;7.262;2022-09-09T09:58:55;20.70;99.90
25550;DHT22;13444;50.562;7.262;2022-09-09T10:03:51;20.60;99.90
25550;DHT22;13444;50.562;7.262;2022-09-09T10:06:16;20.60;99.90
25550;DHT22;13444;50.562;7.262;2022-09-09T10:08:46;20.70;99.90
25550;DHT22;13444;50.562;7.262;2022-09-09T10:17:29;20.90;99.90
25550;DHT22;13444;50.562;7.262;2022-09-09T10:19:36;20.70;99.90
25550;DHT22;13444;50.562;7.262;2022-09-09T10:24:56;20.60;99.90
25550;DHT22;13444;50.562;7.262;2022-09-09T10:30:26;20.70;99.90
25550;DHT22;13444;50.562;7.262;2022-09-09T10:33:20;20.60;99.90
25550;DHT22;13444;50.562;7.262;2022-09-09T10:38:40;20.70;99.90
25550;DHT22;13444;50.562;7.262;2022-09-09T10:52:26;21.80;99.90
25550;DHT22;13444;50.562;7.262;2022-09-09T10:55:14;21.90;99.90
25550;DHT22;13444;50.562;7.262;2022-09-09T10:57:50;22.40;99.90
25550;DHT22;13444;50.562;7.262;2022-09-09T11:00:37;22.30;99.90
25550;DHT22;13444;50.562;7.262;2022-09-09T11:03:04;22.10;99.90
25550;DHT22;13444;50.562;7.262;2022-09-09T11:05:36;21.90;99.90
25550;DHT22;13444;50.562;7.262;2022-09-09T11:10:51;21.80;99.90
25550;DHT22;13444;50.562;7.262;2022-09-09T11:13:30;21.70;99.90
25550;DHT22;13444;50.562;7.262;2022-09-09T11:18:49;21.80;99.90
25550;DHT22;13444;50.562;7.262;2022-09-09T11:21:28;21.90;99.90
25550;DHT22;13444;50.562;7.262;2022-09-09T11:24:10;21.70;99.90
25550;DHT22;13444;50.562;7.262;2022-09-09T11:26:41;21.70;99.90
25550;DHT22;13444;50.562;7.262;2022-09-09T11:29:23;21.60;99.90
25550;DHT22;13444;50.562;7.262;2022-09-09T11:34:34;21.20;99.90
25550;DHT22;13444;50.562;7.262;2022-09-09T11:37:10;21.10;99.90
25550;DHT22;13444;50.562;7.262;2022-09-09T11:39:52;20.80;99.90
25550;DHT22;13444;50.562;7.262;2022-09-09T11:42:24;20.70;99.90
25550;DHT22;13444;50.562;7.262;2022-09-09T11:44:50;20.70;99.90
25550;DHT22;13444;50.562;7.262;2022-09-09T11:49:51;20.80;99.90
25550;DHT22;13444;50.562;7.262;2022-09-09T11:52:42;20.90;99.90
25550;DHT22;13444;50.562;7.262;2022-09-09T11:55:28;21.30;99.90
25550;DHT22;13444;50.562;7.262;2022-09-09T11:58:00;21.90;99.90
25550;DHT22;13444;50.562;7.262;2022-09-09T12:00:34;22.40;99.90
25550;DHT22;13444;50.562;7.262;2022-09-09T12:03:00;23.00;99.90
25550;DHT22;13444;50.562;7.262;2022-09-09T12:05:42;23.40;99.90
25550;DHT22;13444;50.562;7.262;2022-09-09T12:08:15;23.60;99.90
25550;DHT22;13444;50.562;7.262;2022-09-09T12:10:53;23.70;99.90
25550;DHT22;13444;50.562;7.262;2022-09-09T12:13:22;23.50;99.90
25550;DHT22;13444;50.562;7.262;2022-09-09T12:15:53;23.10;99.90
25550;DHT22;13444;50.562;7.262;2022-09-09T12:23:45;23.20;99.90
25550;DHT22;13444;50.562;7.262;2022-09-09T12:31:40;22.90;99.90
25550;DHT22;13444;50.562;7.262;2022-09-09T12:36:42;22.80;99.90
25550;DHT22;13444;50.562;7.262;2022-09-09T12:39:32;22.60;99.90
25550;DHT22;13444;50.562;7.262;2022-09-09T12:41:59;22.60;99.90
25550;DHT22;13444;50.562;7.262;2022-09-09T12:44:25;22.60;99.90
25550;DHT22;13444;50.562;7.262;2022-09-09T12:46:54;22.60;99.90
25550;DHT22;13444;50.562;7.262;2022-09-09T12:49:36;22.60;99.90
25550;DHT22;13444;50.562;7.262;2022-09-09T12:52:30;22.50;99.90
25550;DHT22;13444;50.562;7.262;2022-09-09T12:54:58;22.40;99.90
25550;DHT22;13444;50.562;7.262;2022-09-09T12:57:26;22.40;99.90
25550;DHT22;13444;50.562;7.262;2022-09-09T13:00:07;22.40;99.90
25550;DHT22;13444;50.562;7.262;2022-09-09T13:02:35;22.50;99.90
25550;DHT22;13444;50.562;7.262;2022-09-09T13:05:15;22.60;99.90
25550;DHT22;13444;50.562;7.262;2022-09-09T13:07:42;22.60;99.90
25550;DHT22;13444;50.562;7.262;2022-09-09T13:10:11;22.60;99.90
25550;DHT22;13444;50.562;7.262;2022-09-09T13:12:37;22.40;99.90
25550;DHT22;13444;50.562;7.262;2022-09-09T13:15:03;22.20;99.90
25550;DHT22;13444;50.562;7.262;2022-09-09T13:17:29;22.00;99.90
25550;DHT22;13444;50.562;7.262;2022-09-09T13:19:55;22.00;99.90
25550;DHT22;13444;50.562;7.262;2022-09-09T13:22:35;21.90;99.90
25550;DHT22;13444;50.562;7.262;2022-09-09T13:25:03;21.80;99.90
25550;DHT22;13444;50.562;7.262;2022-09-09T13:27:38;21.80;99.90
25550;DHT22;13444;50.562;7.262;2022-09-09T13:30:24;21.80;99.90
25550;DHT22;13444;50.562;7.262;2022-09-09T13:33:03;21.80;99.90
25550;DHT22;13444;50.562;7.262;2022-09-09T13:35:29;21.80;99.90
25550;DHT22;13444;50.562;7.262;2022-09-09T13:37:55;21.80;99.90
25550;DHT22;13444;50.562;7.262;2022-09-09T13:40:22;21.80;99.90
25550;DHT22;13444;50.562;7.262;2022-09-09T13:42:52;21.80;99.90
25550;DHT22;13444;50.562;7.262;2022-09-09T13:45:21;21.80;99.90
25550;DHT22;13444;50.562;7.262;2022-09-09T13:47:48;21.60;99.90
25550;DHT22;13444;50.562;7.262;2022-09-09T13:50:30;21.50;99.90
25550;DHT22;13444;50.562;7.262;2022-09-09T13:52:57;21.30;99.90
25550;DHT22;13444;50.562;7.262;2022-09-09T13:55:25;21.20;99.90
25550;DHT22;13444;50.562;7.262;2022-09-09T13:57:59;21.20;99.90
25550;DHT22;13444;50.562;7.262;2022-09-09T14:00:33;21.20;99.90
25550;DHT22;13444;50.562;7.262;2022-09-09T14:02:59;21.20;99.90
25550;DHT22;13444;50.562;7.262;2022-09-09T14:05:28;21.10;99.90
25550;DHT22;13444;50.562;7.262;2022-09-09T14:07:55;21.00;99.90
25550;DHT22;13444;50.562;7.262;2022-09-09T14:10:20;20.90;99.90
25550;DHT22;13444;50.562;7.262;2022-09-09T14:12:47;20.80;99.90
25550;DHT22;13444;50.562;7.262;2022-09-09T14:15:13;20.70;99.90
25550;DHT22;13444;50.562;7.262;2022-09-09T14:17:39;20.70;99.90
25550;DHT22;13444;50.562;7.262;2022-09-09T14:20:06;20.60;99.90
25550;DHT22;13444;50.562;7.262;2022-09-09T14:22:32;20.50;99.90
25550;DHT22;13444;50.562;7.262;2022-09-09T14:24:58;20.50;99.90
25550;DHT22;13444;50.562;7.262;2022-09-09T14:27:24;20.50;99.90
25550;DHT22;13444;50.562;7.262;2022-09-09T14:29:52;20.50;99.90
25550;DHT22;13444;50.562;7.262;2022-09-09T14:32:18;20.40;99.90
25550;DHT22;13444;50.562;7.262;2022-09-09T14:34:43;20.40;99.90
25550;DHT22;13444;50.562;7.262;2022-09-09T14:37:09;20.30;99.90
25550;DHT22;13444;50.562;7.262;2022-09-09T14:39:35;20.20;99.90
25550;DHT22;13444;50.562;7.262;2022-09-09T14:42:00;20.20;99.90
25550;DHT22;13444;50.562;7.262;2022-09-09T14:44:27;20.10;99.90
25550;DHT22;13444;50.562;7.262;2022-09-09T14:46:53;20.00;99.90
25550;DHT22;13444;50.562;7.262;2022-09-09T14:49:19;19.90;99.90
25550;DHT22;13444;50.562;7.262;2022-09-09T14:51:45;19.80;99.90
25550;DHT22;13444;50.562;7.262;2022-09-09T14:54:10;19.80;99.90
25550;DHT22;13444;50.562;7.262;2022-09-09T14:56:36;19.80;99.90
25550;DHT22;13444;50.562;7.262;2022-09-09T14:59:02;19.80;99.90
25550;DHT22;13444;50.562;7.262;2022-09-09T15:01:28;19.80;99.90
25550;DHT22;13444;50.562;7.262;2022-09-09T15:03:59;19.80;99.90
25550;DHT22;13444;50.562;7.262;2022-09-09T15:06:27;19.80;99.90
25550;DHT22;13444;50.562;7.262;2022-09-09T15:08:54;19.70;99.90
25550;DHT22;13444;50.562;7.262;2022-09-09T15:11:23;19.80;99.90
25550;DHT22;13444;50.562;7.262;2022-09-09T15:13:51;19.70;99.90
25550;DHT22;13444;50.562;7.262;2022-09-09T15:16:21;19.80;99.90
25550;DHT22;13444;50.562;7.262;2022-09-09T15:18:50;19.80;99.90
25550;DHT22;13444;50.562;7.262;2022-09-09T15:21:18;19.80;99.90
25550;DHT22;13444;50.562;7.262;2022-09-09T15:23:48;19.70;99.90
25550;DHT22;13444;50.562;7.262;2022-09-09T15:26:14;19.70;99.90
25550;DHT22;13444;50.562;7.262;2022-09-09T15:28:41;19.60;99.90
25550;DHT22;13444;50.562;7.262;2022-09-09T15:31:14;19.60;99.90
25550;DHT22;13444;50.562;7.262;2022-09-09T15:33:40;19.60;99.90
25550;DHT22;13444;50.562;7.262;2022-09-09T15:36:16;19.50;99.90
25550;DHT22;13444;50.562;7.262;2022-09-09T15:38:42;19.50;99.90
25550;DHT22;13444;50.562;7.262;2022-09-09T15:41:10;19.50;99.90
25550;DHT22;13444;50.562;7.262;2022-09-09T15:43:35;19.50;99.90
25550;DHT22;13444;50.562;7.262;2022-09-09T15:46:25;19.50;99.90
25550;DHT22;13444;50.562;7.262;2022-09-09T15:49:21;19.50;99.90
25550;DHT22;13444;50.562;7.262;2022-09-09T15:51:55;19.40;99.90
25550;DHT22;13444;50.562;7.262;2022-09-09T15:54:22;19.30;99.90
25550;DHT22;13444;50.562;7.262;2022-09-09T15:56:53;19.40;99.90
25550;DHT22;13444;50.562;7.262;2022-09-09T15:59:22;19.30;99.90
25550;DHT22;13444;50.562;7.262;2022-09-09T16:01:48;19.40;99.90
25550;DHT22;13444;50.562;7.262;2022-09-09T16:04:15;19.40;99.90
25550;DHT22;13444;50.562;7.262;2022-09-09T16:06:46;19.40;99.90
25550;DHT22;13444;50.562;7.262;2022-09-09T16:09:11;19.40;99.90
25550;DHT22;13444;50.562;7.262;2022-09-09T16:11:38;19.20;99.90
25550;DHT22;13444;50.562;7.262;2022-09-09T16:14:05;19.10;99.90
25550;DHT22;13444;50.562;7.262;2022-09-09T16:16:31;19.00;99.90
25550;DHT22;13444;50.562;7.262;2022-09-09T16:18:59;18.90;99.90
25550;DHT22;13444;50.562;7.262;2022-09-09T16:21:28;18.90;99.90
25550;DHT22;13444;50.562;7.262;2022-09-09T16:23:58;18.90;99.90
25550;DHT22;13444;50.562;7.262;2022-09-09T16:26:30;18.80;99.90
25550;DHT22;13444;50.562;7.262;2022-09-09T16:28:56;18.70;99.90
25550;DHT22;13444;50.562;7.262;2022-09-09T16:31:23;18.70;99.90
25550;DHT22;13444;50.562;7.262;2022-09-09T16:33:50;18.70;99.90
25550;DHT22;13444;50.562;7.262;2022-09-09T16:38:46;18.40;99.90
25550;DHT22;13444;50.562;7.262;2022-09-09T16:41:14;18.40;99.90
25550;DHT22;13444;50.562;7.262;2022-09-09T16:43:40;18.40;99.90
25550;DHT22;13444;50.562;7.262;2022-09-09T16:46:18;18.50;99.90
25550;DHT22;13444;50.562;7.262;2022-09-09T16:48:46;18.70;99.90
25550;DHT22;13444;50.562;7.262;2022-09-09T16:51:23;18.70;99.90
25550;DHT22;13444;50.562;7.262;2022-09-09T16:53:50;18.70;99.90
25550;DHT22;13444;50.562;7.262;2022-09-09T16:56:19;18.70;99.90
25550;DHT22;13444;50.562;7.262;2022-09-09T16:58:53;18.80;99.90
25550;DHT22;13444;50.562;7.262;2022-09-09T17:01:21;19.00;99.90
25550;DHT22;13444;50.562;7.262;2022-09-09T17:03:47;19.00;99.90
25550;DHT22;13444;50.562;7.262;2022-09-09T17:06:14;19.10;99.90
25550;DHT22;13444;50.562;7.262;2022-09-09T17:08:40;19.20;99.90
25550;DHT22;13444;50.562;7.262;2022-09-09T17:11:14;19.20;99.90
25550;DHT22;13444;50.562;7.262;2022-09-09T17:13:44;19.30;99.90
25550;DHT22;13444;50.562;7.262;2022-09-09T17:16:11;19.00;99.90
25550;DHT22;13444;50.562;7.262;2022-09-09T17:18:37;18.90;99.90
25550;DHT22;13444;50.562;7.262;2022-09-09T17:21:12;18.60;99.90
25550;DHT22;13444;50.562;7.262;2022-09-09T17:23:39;18.50;99.90
25550;DHT22;13444;50.562;7.262;2022-09-09T17:26:06;18.40;99.90
25550;DHT22;13444;50.562;7.262;2022-09-09T17:28:33;18.30;99.90
25550;DHT22;13444;50.562;7.262;2022-09-09T17:31:00;18.30;99.90